Time;durP1;ratioP1;P1;durP2;ratioP2;P2;SDS_P1;SDS_P2;PMS_P1;PMS_P2;Temp;Humidity;BMP_temperature;BMP_pressure;BME280_temperature;BME280_humidity;BME280_pressure;Samples;Min_cycle;Max_cycle;Signal;HPM_P1;HPM_P2
2021/07/19 00:02:27;;;;;;;;;;;;;;;11.84;83.29;66604.06;5133868;27;19924;-69
2021/07/19 00:04:53;;;;;;;;;;;;;;;11.80;83.92;66598.91;5133640;27;20316;-70
2021/07/19 00:07:20;;;;;;;;;;;;;;;11.75;83.84;66593.72;5134096;27;19928;-70
2021/07/19 00:09:46;;;;;;;;;;;;;;;11.70;84.15;66587.88;5133484;27;19923;-70
2021/07/19 00:12:14;;;;;;;;;;;;;;;11.65;84.23;66582.16;5133899;27;20375;-70
2021/07/19 00:14:41;;;;;;;;;;;;;;;11.60;84.53;66576.56;5133593;27;19924;-70
2021/07/19 00:17:07;;;;;;;;;;;;;;;11.55;84.82;66570.84;5133799;27;19924;-70
2021/07/19 00:19:35;;;;;;;;;;;;;;;11.50;85.22;66565.13;5133515;27;19930;-70
2021/07/19 00:22:02;;;;;;;;;;;;;;;11.45;85.29;66559.81;5133805;27;19930;-72
2021/07/19 00:24:29;;;;;;;;;;;;;;;11.40;85.98;66554.38;5133555;27;19959;-71
2021/07/19 00:26:55;;;;;;;;;;;;;;;11.36;85.95;66549.06;5133500;28;20290;-72
2021/07/19 00:29:22;;;;;;;;;;;;;;;11.31;86.66;66544.06;5133847;28;19924;-71
2021/07/19 00:31:48;;;;;;;;;;;;;;;11.27;87.30;66539.69;5133177;28;19947;-71
2021/07/19 00:34:15;;;;;;;;;;;;;;;11.23;86.86;66535.47;5133359;27;19931;-71
2021/07/19 00:36:43;;;;;;;;;;;;;;;11.20;86.36;66532.44;5137109;27;19924;-71
2021/07/19 00:39:10;;;;;;;;;;;;;;;11.18;87.00;66529.22;5137762;27;19923;-72
2021/07/19 00:41:38;;;;;;;;;;;;;;;11.15;87.37;66525.88;5137298;27;20288;-72
2021/07/19 00:44:05;;;;;;;;;;;;;;;11.12;88.36;66523.00;5137790;27;19923;-72
2021/07/19 00:46:32;;;;;;;;;;;;;;;11.09;88.00;66519.63;5137638;27;20297;-72
2021/07/19 00:48:59;;;;;;;;;;;;;;;11.06;89.26;66515.84;5137532;27;19923;-72
2021/07/19 00:51:27;;;;;;;;;;;;;;;11.03;87.26;66513.69;5137413;27;19924;-72
2021/07/19 00:53:55;;;;;;;;;;;;;;;11.02;87.30;66512.16;5137240;27;19923;-72
2021/07/19 00:56:22;;;;;;;;;;;;;;;10.99;88.60;66509.38;5137301;27;20168;-72
2021/07/19 00:58:51;;;;;;;;;;;;;;;10.97;87.62;66507.31;5137022;27;19968;-72
2021/07/19 01:01:18;;;;;;;;;;;;;;;10.96;86.75;66505.88;5137503;27;19923;-72
2021/07/19 01:03:46;;;;;;;;;;;;;;;10.95;86.52;66504.09;5136979;27;19923;-72
2021/07/19 01:06:13;;;;;;;;;;;;;;;10.93;86.82;66502.25;5137445;27;19924;-72
2021/07/19 01:08:41;;;;;;;;;;;;;;;10.91;86.72;66500.00;5136751;27;20297;-72
2021/07/19 01:11:09;;;;;;;;;;;;;;;10.89;87.11;66497.63;5137392;27;19930;-72
2021/07/19 01:13:36;;;;;;;;;;;;;;;10.88;86.14;66496.34;5137100;27;19923;-72
2021/07/19 01:16:02;;;;;;;;;;;;;;;10.87;86.52;66495.13;5137260;27;19991;-71
2021/07/19 01:18:29;;;;;;;;;;;;;;;10.86;86.25;66493.91;5136692;27;19923;-71
2021/07/19 01:21:11;;;;;;;;;;;;;;;10.84;86.87;66491.78;5136762;27;19923;-71
2021/07/19 01:24:09;;;;;;;;;;;;;;;10.82;86.71;66489.88;5136926;27;19976;-71
2021/07/19 01:26:46;;;;;;;;;;;;;;;10.80;86.59;66487.47;5033177;28;19933;-72
2021/07/19 01:29:15;;;;;;;;;;;;;;;10.77;87.49;66484.28;5119696;27;19924;-72
2021/07/19 01:31:44;;;;;;;;;;;;;;;10.75;87.61;66481.34;5136332;27;19923;-72
2021/07/19 01:34:12;;;;;;;;;;;;;;;10.72;87.49;66478.56;5136838;27;19934;-71
2021/07/19 01:36:42;;;;;;;;;;;;;;;10.70;87.75;66475.47;5136395;27;19930;-71
2021/07/19 01:39:09;;;;;;;;;;;;;;;10.67;87.07;66473.25;5136865;27;19930;-71
2021/07/19 01:41:36;;;;;;;;;;;;;;;10.65;87.39;66470.16;5136552;27;19924;-72
2021/07/19 01:44:03;;;;;;;;;;;;;;;10.63;87.24;66467.31;5136460;27;20385;-72
2021/07/19 01:46:32;;;;;;;;;;;;;;;10.61;86.71;66465.72;5136449;27;19927;-72
2021/07/19 01:48:59;;;;;;;;;;;;;;;10.61;85.41;66465.09;5136693;27;19923;-72
2021/07/19 01:51:26;;;;;;;;;;;;;;;10.60;85.78;66464.28;5136366;27;19930;-72
2021/07/19 01:53:54;;;;;;;;;;;;;;;10.59;86.16;66463.72;5135903;27;19924;-72
2021/07/19 01:56:21;;;;;;;;;;;;;;;10.60;84.54;66464.28;5136120;27;19927;-72
2021/07/19 01:58:47;;;;;;;;;;;;;;;10.60;85.96;66464.13;5135966;27;20416;-72
2021/07/19 02:01:15;;;;;;;;;;;;;;;10.60;85.36;66463.84;5136103;27;20281;-72
2021/07/19 02:03:43;;;;;;;;;;;;;;;10.59;86.07;66463.47;5135881;27;20481;-72
2021/07/19 02:06:10;;;;;;;;;;;;;;;10.59;85.30;66463.63;5136548;27;19923;-72
2021/07/19 02:08:37;;;;;;;;;;;;;;;10.58;86.72;66462.34;5135707;27;19923;-72
2021/07/19 02:11:05;;;;;;;;;;;;;;;10.57;85.81;66461.47;5135897;27;20296;-72
2021/07/19 02:13:32;;;;;;;;;;;;;;;10.56;86.86;66459.81;5135921;27;19934;-72
2021/07/19 02:15:59;;;;;;;;;;;;;;;10.56;85.54;66460.41;5136176;27;19969;-72
2021/07/19 02:18:27;;;;;;;;;;;;;;;10.56;86.04;66460.47;5135775;27;20300;-72
2021/07/19 02:20:55;;;;;;;;;;;;;;;10.55;87.01;66459.19;5135784;27;19923;-73
2021/07/19 02:23:23;;;;;;;;;;;;;;;10.55;85.84;66459.00;5135672;27;20402;-72
2021/07/19 02:25:50;;;;;;;;;;;;;;;10.54;86.24;66458.47;5135398;27;20313;-73
2021/07/19 02:28:17;;;;;;;;;;;;;;;10.54;87.08;66458.06;5135503;27;19923;-72
2021/07/19 02:30:44;;;;;;;;;;;;;;;10.54;86.76;66457.97;5135378;27;20296;-72
2021/07/19 02:33:12;;;;;;;;;;;;;;;10.53;87.79;66457.28;5136085;27;19928;-72
2021/07/19 02:35:41;;;;;;;;;;;;;;;10.52;88.02;66455.91;5135262;27;19930;-73
2021/07/19 02:38:11;;;;;;;;;;;;;;;10.52;88.01;66456.06;5135313;27;19923;-72
2021/07/19 02:40:38;;;;;;;;;;;;;;;10.52;87.32;66456.59;5135049;27;20300;-72
2021/07/19 02:43:05;;;;;;;;;;;;;;;10.53;87.54;66457.16;5135633;27;19924;-72
2021/07/19 02:45:35;;;;;;;;;;;;;;;10.54;87.24;66459.00;5135323;27;19923;-72
2021/07/19 02:48:02;;;;;;;;;;;;;;;10.56;87.19;66461.31;5135509;27;20043;-72
2021/07/19 02:50:30;;;;;;;;;;;;;;;10.59;86.50;66464.38;5135041;27;20404;-72
2021/07/19 02:52:59;;;;;;;;;;;;;;;10.63;85.55;66468.25;5135093;27;19923;-72
2021/07/19 02:55:27;;;;;;;;;;;;;;;10.67;85.48;66472.53;5135258;27;19923;-72
2021/07/19 02:57:54;;;;;;;;;;;;;;;10.72;85.43;66478.00;5134819;27;19923;-72
2021/07/19 03:00:21;;;;;;;;;;;;;;;10.77;85.08;66483.72;5134936;27;19923;-72
2021/07/19 03:02:51;;;;;;;;;;;;;;;10.83;85.14;66490.41;5134688;27;19923;-72
2021/07/19 03:05:19;;;;;;;;;;;;;;;10.89;85.56;66497.66;5135549;27;19924;-73
2021/07/19 03:07:49;;;;;;;;;;;;;;;10.96;84.37;66505.31;5134548;27;19924;-72
2021/07/19 03:10:16;;;;;;;;;;;;;;;11.04;83.36;66514.22;5134643;27;19930;-72
2021/07/19 03:12:45;;;;;;;;;;;;;;;11.12;84.14;66523.59;5134476;27;19924;-72
2021/07/19 03:15:12;;;;;;;;;;;;;;;11.20;83.62;66533.13;5134610;27;19927;-72
2021/07/19 03:17:40;;;;;;;;;;;;;;;11.28;83.26;66542.16;5134407;27;19931;-72
2021/07/19 03:20:07;;;;;;;;;;;;;;;11.37;83.71;66551.50;5134766;27;19929;-72
2021/07/19 03:22:36;;;;;;;;;;;;;;;11.45;83.15;66560.56;5134094;27;20270;-72
2021/07/19 03:25:03;;;;;;;;;;;;;;;11.53;83.02;66570.31;5134730;27;19924;-72
2021/07/19 03:27:30;;;;;;;;;;;;;;;11.63;82.46;66581.66;5134227;27;19993;-72
2021/07/19 03:29:58;;;;;;;;;;;;;;;11.73;80.95;66592.97;5134497;27;19923;-72
2021/07/19 03:32:25;;;;;;;;;;;;;;;11.83;79.96;66603.72;5134472;27;19923;-73
2021/07/19 03:34:52;;;;;;;;;;;;;;;11.93;77.83;66615.44;5134115;27;19934;-72
2021/07/19 03:37:21;;;;;;;;;;;;;;;12.05;77.10;66628.25;5134348;27;20404;-73
2021/07/19 03:39:48;;;;;;;;;;;;;;;12.16;74.55;66640.63;5134018;27;20302;-73
2021/07/19 03:42:15;;;;;;;;;;;;;;;12.27;75.36;66652.63;5134309;27;19923;-73
2021/07/19 03:44:41;;;;;;;;;;;;;;;12.37;74.23;66664.31;5134154;27;19935;-73
2021/07/19 03:47:10;;;;;;;;;;;;;;;12.47;74.67;66675.91;5134087;27;20266;-73
2021/07/19 03:49:37;;;;;;;;;;;;;;;12.58;73.38;66687.03;5134033;27;19945;-72
2021/07/19 03:52:05;;;;;;;;;;;;;;;12.68;73.92;66698.03;5134124;27;19923;-72
2021/07/19 03:54:32;;;;;;;;;;;;;;;12.78;74.16;66709.34;5133765;27;19930;-72
2021/07/19 03:56:59;;;;;;;;;;;;;;;12.87;73.37;66719.78;5134026;27;19930;-72
2021/07/19 03:59:27;;;;;;;;;;;;;;;12.96;73.98;66729.94;5134174;27;19924;-73
2021/07/19 04:01:54;;;;;;;;;;;;;;;13.05;73.94;66740.16;5133771;27;19962;-73
2021/07/19 04:04:37;;;;;;;;;;;;;;;13.14;72.00;66749.75;5134028;27;19923;-72
2021/07/19 04:07:04;;;;;;;;;;;;;;;13.23;71.67;66759.34;5134103;27;20014;-73
2021/07/19 04:09:31;;;;;;;;;;;;;;;13.31;72.54;66768.56;5132910;27;19924;-72
2021/07/19 04:11:57;;;;;;;;;;;;;;;13.39;71.79;66777.22;5133829;27;19946;-72
2021/07/19 04:14:24;;;;;;;;;;;;;;;13.46;72.17;66785.78;5134156;27;19949;-72
2021/07/19 04:16:51;;;;;;;;;;;;;;;13.53;72.01;66793.31;5133410;27;19930;-72
2021/07/19 04:19:18;;;;;;;;;;;;;;;13.60;71.75;66801.09;5133617;27;20381;-72
2021/07/19 04:21:46;;;;;;;;;;;;;;;13.67;70.90;66809.16;5133307;27;19924;-71
2021/07/19 04:24:12;;;;;;;;;;;;;;;13.75;71.42;66818.03;5133851;27;19927;-71
2021/07/19 04:26:39;;;;;;;;;;;;;;;13.84;70.06;66827.91;5133191;27;20369;-71
2021/07/19 04:29:06;;;;;;;;;;;;;;;13.94;69.61;66839.25;5133602;27;20319;-72
2021/07/19 04:31:33;;;;;;;;;;;;;;;14.03;70.18;66849.97;5133530;28;19927;-72
2021/07/19 04:34:00;;;;;;;;;;;;;;;14.13;68.86;66861.47;5133348;28;20293;-71
2021/07/19 04:36:28;;;;;;;;;;;;;;;14.22;68.95;66870.38;5133714;28;19923;-71
2021/07/19 04:38:56;;;;;;;;;;;;;;;14.30;67.22;66879.31;5133674;28;20047;-71
2021/07/19 04:41:23;;;;;;;;;;;;;;;14.36;68.81;66886.59;5133494;28;19934;-72
2021/07/19 04:43:49;;;;;;;;;;;;;;;14.42;67.02;66893.63;5133710;28;19928;-71
2021/07/19 04:46:16;;;;;;;;;;;;;;;14.47;66.54;66899.25;5133650;28;19923;-72
2021/07/19 04:48:43;;;;;;;;;;;;;;;14.53;64.05;66906.13;5133273;28;19957;-71
2021/07/19 04:51:10;;;;;;;;;;;;;;;14.58;65.61;66912.00;5133248;28;19930;-71
2021/07/19 04:53:37;;;;;;;;;;;;;;;14.64;65.46;66918.22;5132827;28;20487;-72
2021/07/19 04:56:06;;;;;;;;;;;;;;;14.71;66.10;66926.22;5133928;28;19924;-71
2021/07/19 04:58:33;;;;;;;;;;;;;;;14.77;67.62;66933.97;5134263;28;19928;-71
2021/07/19 05:01:01;;;;;;;;;;;;;;;14.84;67.34;66941.50;5136957;28;20293;-71
2021/07/19 05:03:29;;;;;;;;;;;;;;;14.90;67.38;66948.69;5134799;28;19924;-71
2021/07/19 05:05:56;;;;;;;;;;;;;;;14.95;67.30;66953.84;5133565;28;19930;-70
2021/07/19 05:08:24;;;;;;;;;;;;;;;15.00;67.84;66959.44;5132961;28;19933;-71
2021/07/19 05:10:51;;;;;;;;;;;;;;;15.03;67.77;66963.63;5133191;28;19923;-71
2021/07/19 05:13:20;;;;;;;;;;;;;;;15.07;67.49;66967.38;5133068;28;19923;-70
2021/07/19 05:15:47;;;;;;;;;;;;;;;15.10;67.95;66970.53;5133128;28;19930;-70
2021/07/19 05:18:16;;;;;;;;;;;;;;;15.13;68.11;66973.16;5133306;28;19923;-71
2021/07/19 05:20:44;;;;;;;;;;;;;;;15.16;68.09;66976.22;5132831;27;20393;-71
2021/07/19 05:23:11;;;;;;;;;;;;;;;15.19;67.45;66979.84;5136864;27;19923;-71
2021/07/19 05:25:38;;;;;;;;;;;;;;;15.22;67.40;66983.91;5136894;27;19928;-71
2021/07/19 05:28:05;;;;;;;;;;;;;;;15.25;67.56;66986.41;5137123;27;19923;-71
2021/07/19 05:30:34;;;;;;;;;;;;;;;15.27;66.90;66989.19;5136629;27;19973;-71
2021/07/19 05:33:01;;;;;;;;;;;;;;;15.30;66.39;66992.53;5136538;27;20377;-71
2021/07/19 05:35:27;;;;;;;;;;;;;;;15.33;67.27;66995.75;5137003;27;19930;-72
2021/07/19 05:37:54;;;;;;;;;;;;;;;15.37;65.61;67000.53;5136678;27;20293;-71
2021/07/19 05:40:20;;;;;;;;;;;;;;;15.40;65.35;67004.19;5136790;27;19924;-71
2021/07/19 05:42:47;;;;;;;;;;;;;;;15.44;64.38;67007.97;5136159;27;19923;-71
2021/07/19 05:45:14;;;;;;;;;;;;;;;15.48;65.61;67012.72;5136802;27;19950;-71
2021/07/19 05:47:42;;;;;;;;;;;;;;;15.53;62.68;67018.44;5136635;27;19923;-71
2021/07/19 05:50:10;;;;;;;;;;;;;;;15.58;63.55;67024.44;5136450;27;19930;-71
2021/07/19 05:52:37;;;;;;;;;;;;;;;15.63;63.88;67030.38;5135866;27;19931;-71
2021/07/19 05:55:04;;;;;;;;;;;;;;;15.67;63.08;67034.31;5136218;27;20362;-71
2021/07/19 05:57:31;;;;;;;;;;;;;;;15.68;65.00;67036.28;5135935;27;19923;-71
2021/07/19 05:59:58;;;;;;;;;;;;;;;15.70;64.17;67038.31;5136373;27;19924;-71
2021/07/19 06:02:25;;;;;;;;;;;;;;;15.69;65.95;67037.28;5136183;27;19959;-71
2021/07/19 06:04:53;;;;;;;;;;;;;;;15.69;65.46;67036.88;5136156;27;19946;-71
2021/07/19 06:07:20;;;;;;;;;;;;;;;15.69;65.05;67037.63;5135997;27;19925;-72
2021/07/19 06:09:47;;;;;;;;;;;;;;;15.70;63.32;67038.59;5135701;27;19973;-71
2021/07/19 06:12:13;;;;;;;;;;;;;;;15.71;63.26;67039.69;5135984;27;20308;-71
2021/07/19 06:14:40;;;;;;;;;;;;;;;15.74;63.12;67042.34;5135988;27;19972;-72
2021/07/19 06:17:06;;;;;;;;;;;;;;;15.78;61.15;67047.81;5135831;27;19923;-72
2021/07/19 06:19:33;;;;;;;;;;;;;;;15.84;62.13;67054.38;5135825;27;19923;-72
2021/07/19 06:22:01;;;;;;;;;;;;;;;15.92;60.62;67062.50;5135538;27;19930;-72
2021/07/19 06:24:28;;;;;;;;;;;;;;;15.99;60.28;67071.63;5135659;27;19924;-72
2021/07/19 06:26:55;;;;;;;;;;;;;;;16.06;60.39;67078.81;5136104;27;19927;-72
2021/07/19 06:29:21;;;;;;;;;;;;;;;16.12;60.62;67085.81;5135525;27;19924;-72
2021/07/19 06:31:48;;;;;;;;;;;;;;;16.18;60.81;67093.56;5135516;27;19923;-72
2021/07/19 06:34:15;;;;;;;;;;;;;;;16.26;58.20;67101.63;5134478;27;20325;-72
2021/07/19 06:36:42;;;;;;;;;;;;;;;16.34;59.23;67110.44;5135121;27;19923;-72
2021/07/19 06:39:10;;;;;;;;;;;;;;;16.39;58.96;67115.97;5135373;27;19924;-72
2021/07/19 06:41:36;;;;;;;;;;;;;;;16.44;59.23;67121.69;5134975;27;19923;-72
2021/07/19 06:44:03;;;;;;;;;;;;;;;16.51;56.89;67129.09;5135600;27;19923;-72
2021/07/19 06:46:30;;;;;;;;;;;;;;;16.58;56.13;67136.94;5135370;27;20011;-72
2021/07/19 06:48:56;;;;;;;;;;;;;;;16.66;55.51;67146.22;5135302;27;19923;-72
2021/07/19 06:51:23;;;;;;;;;;;;;;;16.71;57.80;67152.06;5135028;27;19930;-72
2021/07/19 06:53:49;;;;;;;;;;;;;;;16.74;57.62;67154.97;5134671;27;19930;-73
2021/07/19 06:56:17;;;;;;;;;;;;;;;16.75;58.62;67156.38;5135200;27;19924;-72
2021/07/19 06:58:44;;;;;;;;;;;;;;;16.76;58.86;67157.03;5134665;27;20381;-72
2021/07/19 07:01:11;;;;;;;;;;;;;;;16.75;59.24;67156.66;5135276;27;19923;-72
2021/07/19 07:03:37;;;;;;;;;;;;;;;16.76;58.71;67157.44;5134840;27;19924;-71
2021/07/19 07:06:04;;;;;;;;;;;;;;;16.77;60.00;67158.59;5134983;27;19924;-71
2021/07/19 07:08:30;;;;;;;;;;;;;;;16.77;60.05;67158.19;5134913;27;19946;-72
2021/07/19 07:10:58;;;;;;;;;;;;;;;16.76;59.31;67157.75;5135037;27;19923;-72
2021/07/19 07:13:26;;;;;;;;;;;;;;;16.76;59.25;67157.22;5134777;27;20301;-72
2021/07/19 07:15:53;;;;;;;;;;;;;;;16.77;58.27;67157.88;5134604;27;20033;-72
2021/07/19 07:18:19;;;;;;;;;;;;;;;16.80;57.11;67161.81;5134977;27;19930;-72
2021/07/19 07:20:46;;;;;;;;;;;;;;;16.84;57.40;67165.72;5134666;27;19938;-72
2021/07/19 07:23:12;;;;;;;;;;;;;;;16.90;56.49;67171.84;5134561;27;20482;-71
2021/07/19 07:25:39;;;;;;;;;;;;;;;16.98;53.61;67181.75;5134435;27;19930;-73
2021/07/19 07:28:06;;;;;;;;;;;;;;;17.03;54.14;67187.56;5134863;27;19923;-73
2021/07/19 07:30:34;;;;;;;;;;;;;;;17.09;54.45;67194.16;5134503;27;19930;-72
2021/07/19 07:33:00;;;;;;;;;;;;;;;17.12;53.70;67197.56;5134624;27;19930;-73
2021/07/19 07:35:27;;;;;;;;;;;;;;;17.12;54.43;67198.09;5134357;27;20273;-72
2021/07/19 07:37:53;;;;;;;;;;;;;;;17.12;55.05;67198.59;5133916;27;19923;-73
2021/07/19 07:40:20;;;;;;;;;;;;;;;17.09;56.08;67194.69;5134591;27;19923;-72
2021/07/19 07:42:47;;;;;;;;;;;;;;;17.05;57.26;67190.56;5133947;27;19923;-72
2021/07/19 07:45:13;;;;;;;;;;;;;;;17.02;57.26;67187.50;5134279;27;19924;-72
2021/07/19 07:47:42;;;;;;;;;;;;;;;17.00;56.51;67185.25;5133859;27;19923;-72
2021/07/19 07:50:09;;;;;;;;;;;;;;;16.97;57.51;67182.59;5134066;27;19969;-72
2021/07/19 07:52:36;;;;;;;;;;;;;;;16.97;56.51;67182.03;5133676;27;19923;-72
2021/07/19 07:55:03;;;;;;;;;;;;;;;16.96;55.94;67181.47;5133875;27;19931;-73
2021/07/19 07:57:29;;;;;;;;;;;;;;;16.96;56.14;67181.53;5133946;27;20382;-72
2021/07/19 07:59:56;;;;;;;;;;;;;;;17.05;52.86;67191.50;5134294;27;19930;-73
2021/07/19 08:02:22;;;;;;;;;;;;;;;17.17;51.18;67205.53;5134169;27;19947;-73
2021/07/19 08:04:50;;;;;;;;;;;;;;;17.28;51.98;67218.13;5133680;27;19931;-72
2021/07/19 08:07:17;;;;;;;;;;;;;;;17.38;50.82;67228.66;5134036;27;19924;-72
2021/07/19 08:09:43;;;;;;;;;;;;;;;17.44;52.33;67235.22;5133526;27;19931;-72
2021/07/19 08:12:10;;;;;;;;;;;;;;;17.51;52.41;67243.53;5134006;27;19946;-73
2021/07/19 08:14:37;;;;;;;;;;;;;;;17.60;50.06;67254.34;5133579;27;19930;-73
2021/07/19 08:17:03;;;;;;;;;;;;;;;17.68;52.02;67263.59;5133842;27;19924;-73
2021/07/19 08:19:33;;;;;;;;;;;;;;;17.83;47.39;67280.16;5133785;27;19923;-73
2021/07/19 08:22:01;;;;;;;;;;;;;;;17.98;45.87;67296.47;5133816;27;19976;-72
2021/07/19 08:24:28;;;;;;;;;;;;;;;18.01;49.85;67299.88;5133535;27;19924;-72
2021/07/19 08:26:54;;;;;;;;;;;;;;;18.10;47.55;67310.16;5133257;27;19923;-72
2021/07/19 08:29:21;;;;;;;;;;;;;;;18.31;44.43;67333.84;5133788;27;19978;-72
2021/07/19 08:31:47;;;;;;;;;;;;;;;18.47;44.30;67352.34;5133153;27;19930;-73
2021/07/19 08:34:14;;;;;;;;;;;;;;;18.68;40.56;67376.94;5133752;28;19924;-72
2021/07/19 08:36:41;;;;;;;;;;;;;;;18.92;39.41;67404.38;5133500;28;19923;-72
2021/07/19 08:39:09;;;;;;;;;;;;;;;19.17;36.96;67432.63;5133446;28;20288;-72
2021/07/19 08:41:36;;;;;;;;;;;;;;;19.33;40.91;67450.69;5133328;28;19928;-72
2021/07/19 08:44:05;;;;;;;;;;;;;;;19.54;38.12;67473.38;5133497;28;19930;-73
2021/07/19 08:46:32;;;;;;;;;;;;;;;19.67;38.84;67487.97;5133024;28;20030;-73
2021/07/19 08:48:59;;;;;;;;;;;;;;;19.79;38.37;67501.72;5133352;28;19976;-73
2021/07/19 08:51:25;;;;;;;;;;;;;;;19.94;37.84;67518.25;5133401;28;20293;-73
2021/07/19 08:53:53;;;;;;;;;;;;;;;20.00;41.16;67525.09;5132793;28;19923;-73
2021/07/19 08:56:21;;;;;;;;;;;;;;;20.10;39.32;67536.59;5134854;27;19976;-74
2021/07/19 08:58:48;;;;;;;;;;;;;;;20.34;36.96;67563.63;5137005;27;20270;-73
2021/07/19 09:01:14;;;;;;;;;;;;;;;20.53;36.87;67586.13;5137684;27;19988;-73
2021/07/19 09:03:41;;;;;;;;;;;;;;;20.78;34.61;67613.97;5137316;27;19930;-73
2021/07/19 09:06:11;;;;;;;;;;;;;;;21.03;34.01;67642.09;5137503;27;19924;-73
2021/07/19 09:08:45;;;;;;;;;;;;;;;21.29;33.69;67671.81;5137269;27;19945;-74
2021/07/19 09:11:12;;;;;;;;;;;;;;;21.60;31.99;67708.03;5137396;27;19924;-73
2021/07/19 09:13:55;;;;;;;;;;;;;;;21.86;31.94;67737.91;5136855;27;20397;-73
2021/07/19 09:16:22;;;;;;;;;;;;;;;22.04;32.40;67757.84;5137126;27;19931;-73
2021/07/19 09:19:01;;;;;;;;;;;;;;;22.26;32.85;67783.72;5136589;27;19931;-72
2021/07/19 09:21:31;;;;;;;;;;;;;;;22.33;35.36;67791.78;5137225;27;19931;-74
2021/07/19 09:24:03;;;;;;;;;;;;;;;22.24;39.72;67781.31;5136803;27;19930;-72
2021/07/19 09:26:31;;;;;;;;;;;;;;;22.08;44.11;67763.38;5137422;27;19923;-72
2021/07/19 09:28:59;;;;;;;;;;;;;;;21.92;44.74;67744.09;5137077;27;19935;-73
2021/07/19 09:31:32;;;;;;;;;;;;;;;21.87;40.87;67738.28;5137099;27;20403;-72
2021/07/19 09:33:59;;;;;;;;;;;;;;;21.81;40.55;67731.75;5136689;27;20391;-72
2021/07/19 09:36:27;;;;;;;;;;;;;;;21.83;39.53;67733.66;5136695;27;20471;-70
2021/07/19 09:39:04;;;;;;;;;;;;;;;21.74;41.00;67722.88;5136659;27;19924;-71
2021/07/19 09:41:30;;;;;;;;;;;;;;;21.53;45.69;67699.41;5136752;27;20033;-72
2021/07/19 09:43:57;;;;;;;;;;;;;;;21.39;45.52;67684.06;5136393;27;19930;-71
2021/07/19 09:46:33;;;;;;;;;;;;;;;21.21;46.26;67663.38;5137332;27;19930;-71
2021/07/19 09:49:00;;;;;;;;;;;;;;;21.02;49.01;67641.19;5136434;27;19928;-71
2021/07/19 09:51:30;;;;;;;;;;;;;;;20.81;50.52;67617.09;5136698;27;19928;-71
2021/07/19 09:53:56;;;;;;;;;;;;;;;20.59;51.23;67593.06;5136212;27;20054;-71
2021/07/19 09:56:23;;;;;;;;;;;;;;;20.38;52.38;67569.19;5136186;27;19923;-71
2021/07/19 09:58:50;;;;;;;;;;;;;;;20.16;52.34;67544.06;5136234;27;20365;-72
2021/07/19 10:01:26;;;;;;;;;;;;;;;19.97;52.56;67522.69;5136432;27;19930;-72
2021/07/19 10:04:03;;;;;;;;;;;;;;;19.80;50.89;67504.03;5135771;27;19930;-72
2021/07/19 10:06:30;;;;;;;;;;;;;;;19.63;50.95;67484.22;5136345;27;19945;-72
2021/07/19 10:08:57;;;;;;;;;;;;;;;19.44;53.21;67462.66;5134799;27;19927;-71
2021/07/19 10:11:24;;;;;;;;;;;;;;;19.25;53.98;67441.13;5135821;27;20431;-72
2021/07/19 10:13:52;;;;;;;;;;;;;;;19.05;55.21;67418.78;5135856;27;19927;-72
2021/07/19 10:16:19;;;;;;;;;;;;;;;18.87;55.42;67398.16;5135757;27;20406;-72
2021/07/19 10:18:47;;;;;;;;;;;;;;;18.75;54.21;67384.25;5135480;27;19934;-73
2021/07/19 10:21:15;;;;;;;;;;;;;;;18.65;52.24;67372.41;5136146;27;19923;-72
2021/07/19 10:23:43;;;;;;;;;;;;;;;18.56;52.05;67362.16;5135425;27;19972;-72
2021/07/19 10:26:10;;;;;;;;;;;;;;;18.49;51.05;67354.41;5135687;27;19969;-73
2021/07/19 10:28:37;;;;;;;;;;;;;;;18.43;52.35;67347.50;5135358;27;19924;-72
2021/07/19 10:31:04;;;;;;;;;;;;;;;18.39;50.36;67343.03;5135727;27;19924;-72
2021/07/19 10:33:31;;;;;;;;;;;;;;;18.47;46.01;67352.59;5135803;27;19923;-72
2021/07/19 10:35:58;;;;;;;;;;;;;;;18.61;43.55;67368.09;5135469;27;20374;-72
2021/07/19 10:38:27;;;;;;;;;;;;;;;18.83;41.39;67392.72;5135754;27;19923;-72
2021/07/19 10:40:55;;;;;;;;;;;;;;;19.00;40.83;67412.06;5135163;27;19924;-73
2021/07/19 10:43:22;;;;;;;;;;;;;;;19.21;40.35;67435.66;5135324;27;19924;-73
2021/07/19 10:45:50;;;;;;;;;;;;;;;19.39;39.72;67455.84;5135053;27;20549;-73
2021/07/19 10:48:25;;;;;;;;;;;;;;;19.42;43.22;67459.66;5135498;27;19992;-73
2021/07/19 10:50:51;;;;;;;;;;;;;;;19.45;44.37;67462.91;5135025;27;20400;-73
2021/07/19 10:53:19;;;;;;;;;;;;;;;19.66;38.17;67486.69;5134948;27;19930;-73
2021/07/19 10:55:57;;;;;;;;;;;;;;;19.93;37.17;67516.41;5135237;27;19923;-73
2021/07/19 10:58:29;;;;;;;;;;;;;;;20.27;34.04;67554.50;5135345;27;19928;-73
2021/07/19 11:00:56;;;;;;;;;;;;;;;20.44;36.68;67573.53;5135097;27;19923;-73
2021/07/19 11:03:23;;;;;;;;;;;;;;;20.54;39.35;67585.63;5134943;27;19930;-73
2021/07/19 11:05:53;;;;;;;;;;;;;;;20.71;36.67;67604.19;5134514;27;19923;-71
2021/07/19 11:08:20;;;;;;;;;;;;;;;20.91;35.12;67626.38;5135600;27;19973;-71
2021/07/19 11:10:48;;;;;;;;;;;;;;;21.23;32.64;67662.75;5135051;27;19927;-71
2021/07/19 11:13:26;;;;;;;;;;;;;;;21.58;30.51;67702.75;5135166;27;19923;-71
2021/07/19 11:15:52;;;;;;;;;;;;;;;21.77;32.83;67723.72;5135207;27;19923;-71
2021/07/19 11:18:20;;;;;;;;;;;;;;;21.84;35.82;67731.16;5137877;27;19953;-71
2021/07/19 11:20:47;;;;;;;;;;;;;;;21.89;37.88;67736.44;5140718;27;19969;-71
2021/07/19 11:23:14;;;;;;;;;;;;;;;21.94;36.63;67742.19;5137404;27;19930;-72
2021/07/19 11:25:42;;;;;;;;;;;;;;;21.98;37.44;67746.50;5134319;27;19930;-72
2021/07/19 11:28:21;;;;;;;;;;;;;;;22.02;37.18;67750.72;5134451;27;20285;-71
2021/07/19 11:31:07;;;;;;;;;;;;;;;22.13;35.08;67763.50;5134153;27;19927;-71
2021/07/19 11:33:35;;;;;;;;;;;;;;;22.25;34.72;67776.63;5134135;27;20381;-71
2021/07/19 11:36:03;;;;;;;;;;;;;;;22.22;39.83;67773.09;5134297;27;19924;-72
2021/07/19 11:38:36;;;;;;;;;;;;;;;22.08;42.45;67757.84;5134203;27;20327;-72
2021/07/19 11:41:13;;;;;;;;;;;;;;;21.94;44.80;67741.56;5134205;27;19976;-72
2021/07/19 11:43:41;;;;;;;;;;;;;;;21.97;39.45;67745.66;5134135;27;20294;-72
2021/07/19 11:46:08;;;;;;;;;;;;;;;21.98;41.07;67745.94;5134232;27;19931;-72
2021/07/19 11:48:36;;;;;;;;;;;;;;;21.94;39.97;67741.97;5133898;27;19929;-73
2021/07/19 11:51:02;;;;;;;;;;;;;;;21.93;39.41;67740.75;5134167;27;19923;-73
2021/07/19 11:53:29;;;;;;;;;;;;;;;21.90;41.33;67736.63;5133787;27;19931;-73
2021/07/19 11:55:56;;;;;;;;;;;;;;;21.72;46.69;67716.81;5134013;27;20320;-73
2021/07/19 11:58:24;;;;;;;;;;;;;;;21.52;46.94;67694.00;5133339;27;20203;-73
2021/07/19 12:00:55;;;;;;;;;;;;;;;21.30;49.11;67669.16;5133475;27;19927;-73
2021/07/19 12:03:21;;;;;;;;;;;;;;;21.12;48.20;67649.38;5134379;27;19927;-73
2021/07/19 12:05:51;;;;;;;;;;;;;;;20.95;49.12;67630.19;5133580;27;20430;-73
2021/07/19 12:08:18;;;;;;;;;;;;;;;20.95;44.93;67629.38;5134076;27;19927;-73
2021/07/19 12:10:44;;;;;;;;;;;;;;;20.84;46.60;67617.41;5133420;27;20400;-73
2021/07/19 12:13:12;;;;;;;;;;;;;;;20.91;41.87;67624.88;5133971;27;19923;-73
2021/07/19 12:15:39;;;;;;;;;;;;;;;21.04;38.10;67639.91;5133731;27;19946;-72
2021/07/19 12:18:07;;;;;;;;;;;;;;;21.04;40.56;67640.31;5133695;27;19923;-73
2021/07/19 12:20:34;;;;;;;;;;;;;;;21.14;37.99;67651.16;5133196;27;19929;-72
2021/07/19 12:23:01;;;;;;;;;;;;;;;21.31;36.22;67670.28;5133739;27;19928;-72
2021/07/19 12:25:28;;;;;;;;;;;;;;;21.27;41.31;67665.75;5133430;27;19928;-72
2021/07/19 12:28:00;;;;;;;;;;;;;;;21.32;39.27;67671.56;5133516;27;19930;-72
2021/07/19 12:30:28;;;;;;;;;;;;;;;21.43;37.19;67684.22;5132769;27;19931;-73
2021/07/19 12:32:55;;;;;;;;;;;;;;;21.56;37.13;67698.94;5133365;27;19923;-71
2021/07/19 12:35:27;;;;;;;;;;;;;;;21.58;39.66;67701.16;5133371;28;20369;-72
2021/07/19 12:37:57;;;;;;;;;;;;;;;21.58;39.36;67700.72;5133422;28;19923;-71
2021/07/19 12:40:25;;;;;;;;;;;;;;;21.51;42.24;67692.41;5133330;28;19923;-72
2021/07/19 12:42:52;;;;;;;;;;;;;;;21.51;40.43;67692.94;5133020;28;20456;-72
2021/07/19 12:45:19;;;;;;;;;;;;;;;21.59;39.07;67701.22;5133427;28;20319;-72
2021/07/19 12:47:48;;;;;;;;;;;;;;;21.62;37.95;67704.97;5132934;28;19931;-72
2021/07/19 12:50:14;;;;;;;;;;;;;;;21.67;36.53;67710.19;5133556;28;19973;-72
2021/07/19 12:52:42;;;;;;;;;;;;;;;21.74;36.03;67718.19;5132762;28;19923;-72